Time,TemperatureF,DewpointF,PressureIn,WindDirection,WindDirectionDegrees,WindSpeedMPH,WindSpeedGustMPH,Humidity,HourlyPrecipIn,Conditions,Clouds,dailyrainin,SoftwareType,DateUTC
2013-04-30 00:12:00,55.3,39.0,30.22,SSE,167,2.0,-999.0,54,-99.99,,,0.00,weatherlink.com 1.10,2013-04-30 04:12:00,
2013-04-30 00:27:00,55.0,38.0,30.22,SE,138,0.0,-999.0,54,-99.99,,,0.00,weatherlink.com 1.10,2013-04-30 04:27:00,
2013-04-30 00:42:00,54.6,38.0,30.22,SSE,157,0.0,-999.0,54,-99.99,,,0.00,weatherlink.com 1.10,2013-04-30 04:42:00,
2013-04-30 00:57:00,54.3,38.0,30.22,SSE,157,0.0,-999.0,54,-99.99,,,0.00,weatherlink.com 1.10,2013-04-30 04:57:00,
2013-04-30 01:12:00,54.0,37.0,30.22,SSE,157,0.0,-999.0,54,-99.99,,,0.00,weatherlink.com 1.10,2013-04-30 05:12:00,
2013-04-30 01:27:00,53.8,37.0,30.22,SSE,157,2.0,-999.0,53,-99.99,,,0.00,weatherlink.com 1.10,2013-04-30 05:27:00,
2013-04-30 01:42:00,53.5,36.0,30.22,South,172,4.0,-999.0,52,-99.99,,,0.00,weatherlink.com 1.10,2013-04-30 05:42:00,
2013-04-30 01:57:00,53.3,36.0,30.22,South,177,0.0,-999.0,52,-99.99,,,0.00,weatherlink.com 1.10,2013-04-30 05:57:00,
2013-04-30 02:12:00,53.2,35.0,30.22,South,176,4.0,-999.0,50,-99.99,,,0.00,weatherlink.com 1.10,2013-04-30 06:12:00,
2013-04-30 02:27:00,52.9,33.0,30.23,South,177,0.0,-999.0,48,-99.99,,,0.00,weatherlink.com 1.10,2013-04-30 06:27:00,
2013-04-30 02:42:00,52.9,33.0,30.23,South,177,1.0,-999.0,48,-99.99,,,0.00,weatherlink.com 1.10,2013-04-30 06:42:00,
2013-04-30 02:57:00,52.7,33.0,30.23,South,177,0.0,-999.0,47,-99.99,,,0.00,weatherlink.com 1.10,2013-04-30 06:57:00,
2013-04-30 03:12:00,52.6,32.0,30.23,South,177,2.0,-999.0,45,-99.99,,,0.00,weatherlink.com 1.10,2013-04-30 07:12:00,
2013-04-30 03:28:00,52.0,33.0,30.24,SSW,208,5.0,-999.0,48,-99.99,,,0.00,weatherlink.com 1.10,2013-04-30 07:28:00,
2013-04-30 03:43:00,51.9,33.0,30.24,SSW,201,0.0,-999.0,49,-99.99,,,0.00,weatherlink.com 1.10,2013-04-30 07:43:00,
2013-04-30 03:58:00,51.6,32.0,30.25,South,177,0.0,-999.0,48,-99.99,,,0.00,weatherlink.com 1.10,2013-04-30 07:58:00,
2013-04-30 04:13:00,51.7,33.0,30.24,South,188,0.0,-999.0,49,-99.99,,,0.00,weatherlink.com 1.10,2013-04-30 08:13:00,
2013-04-30 04:28:00,51.4,33.0,30.25,South,188,0.0,-999.0,50,-99.99,,,0.00,weatherlink.com 1.10,2013-04-30 08:28:00,
2013-04-30 04:43:00,51.2,31.0,30.25,South,188,0.0,-999.0,47,-99.99,,,0.00,weatherlink.com 1.10,2013-04-30 08:43:00,
2013-04-30 04:58:00,51.2,32.0,30.25,South,188,0.0,-999.0,49,-99.99,,,0.00,weatherlink.com 1.10,2013-04-30 08:58:00,
2013-04-30 05:13:00,51.0,32.0,30.26,South,188,2.0,-999.0,49,-99.99,,,0.00,weatherlink.com 1.10,2013-04-30 09:13:00,
2013-04-30 05:28:00,50.7,32.0,30.26,South,188,0.0,-999.0,50,-99.99,,,0.00,weatherlink.com 1.10,2013-04-30 09:28:00,
2013-04-30 05:43:00,51.0,31.0,30.26,South,187,0.0,-999.0,47,-99.99,,,0.00,weatherlink.com 1.10,2013-04-30 09:43:00,
2013-04-30 05:58:00,51.2,31.0,30.26,South,187,0.0,-999.0,47,-99.99,,,0.00,weatherlink.com 1.10,2013-04-30 09:58:00,
2013-04-30 06:13:00,51.4,31.0,30.26,South,188,0.0,-999.0,46,-99.99,,,0.00,weatherlink.com 1.10,2013-04-30 10:13:00,
2013-04-30 06:28:00,51.4,33.0,30.27,South,188,0.0,-999.0,50,-99.99,,,0.00,weatherlink.com 1.10,2013-04-30 10:28:00,
2013-04-30 06:43:00,51.0,35.0,30.27,SSW,207,0.0,-999.0,54,-99.99,,,0.00,weatherlink.com 1.10,2013-04-30 10:43:00,
2013-04-30 06:58:00,50.6,36.0,30.27,WSW,254,0.0,-999.0,57,-99.99,,,0.00,weatherlink.com 1.10,2013-04-30 10:58:00,
2013-04-30 07:13:00,50.9,35.0,30.28,WSW,255,0.0,-999.0,56,-99.99,,,0.00,weatherlink.com 1.10,2013-04-30 11:13:00,
2013-04-30 07:28:00,50.8,37.0,30.28,WSW,255,0.0,-999.0,60,-99.99,,,0.00,weatherlink.com 1.10,2013-04-30 11:28:00,
2013-04-30 07:43:00,51.2,37.0,30.28,WSW,255,0.0,-999.0,58,-99.99,,,0.00,weatherlink.com 1.10,2013-04-30 11:43:00,
2013-04-30 07:58:00,52.4,35.0,30.28,ESE,120,1.0,-999.0,52,-99.99,,,0.00,weatherlink.com 1.10,2013-04-30 11:58:00,
2013-04-30 08:13:00,54.7,36.0,30.29,ESE,120,1.0,-999.0,49,-99.99,,,0.00,weatherlink.com 1.10,2013-04-30 12:13:00,
2013-04-30 08:28:00,54.5,34.0,30.29,SE,134,4.0,-999.0,46,-99.99,,,0.00,weatherlink.com 1.10,2013-04-30 12:28:00,
2013-04-30 08:43:00,54.9,34.0,30.29,South,188,2.0,-999.0,46,-99.99,,,0.00,weatherlink.com 1.10,2013-04-30 12:43:00,
2013-04-30 08:58:00,55.9,35.0,30.29,SE,125,1.0,-999.0,45,-99.99,,,0.00,weatherlink.com 1.10,2013-04-30 12:58:00,
2013-04-30 09:13:00,56.7,34.0,30.29,SE,124,1.0,-999.0,43,-99.99,,,0.00,weatherlink.com 1.10,2013-04-30 13:13:00,
2013-04-30 09:28:00,57.6,36.0,30.29,East,88,2.0,-999.0,44,-99.99,,,0.00,weatherlink.com 1.10,2013-04-30 13:28:00,
2013-04-30 09:43:00,58.2,34.0,30.29,ESE,106,1.0,-999.0,41,-99.99,,,0.00,weatherlink.com 1.10,2013-04-30 13:43:00,
2013-04-30 09:59:00,59.3,33.0,30.29,South,177,5.0,-999.0,38,-99.99,,,0.00,weatherlink.com 1.10,2013-04-30 13:59:00,
2013-04-30 10:13:00,60.3,35.0,30.28,South,180,6.0,-999.0,39,-99.99,,,0.00,weatherlink.com 1.10,2013-04-30 14:13:00,
2013-04-30 10:28:00,62.0,42.0,30.28,SE,130,5.0,-999.0,48,-99.99,,,0.00,weatherlink.com 1.10,2013-04-30 14:28:00,
2013-04-30 10:43:00,62.6,37.0,30.28,South,176,5.0,-999.0,39,-99.99,,,0.00,weatherlink.com 1.10,2013-04-30 14:43:00,
2013-04-30 10:58:00,61.8,37.0,30.28,South,174,5.0,-999.0,40,-99.99,,,0.00,weatherlink.com 1.10,2013-04-30 14:58:00,
2013-04-30 11:13:00,62.8,39.0,30.28,South,186,6.0,-999.0,41,-99.99,,,0.00,weatherlink.com 1.10,2013-04-30 15:13:00,
2013-04-30 11:28:00,63.2,39.0,30.27,SSE,147,6.0,-999.0,41,-99.99,,,0.00,weatherlink.com 1.10,2013-04-30 15:28:00,
2013-04-30 11:43:00,65.2,39.0,30.27,South,180,0.0,-999.0,39,-99.99,,,0.00,weatherlink.com 1.10,2013-04-30 15:43:00,
2013-04-30 11:58:00,66.3,47.0,30.27,SSE,153,6.0,-999.0,50,-99.99,,,0.00,weatherlink.com 1.10,2013-04-30 15:58:00,
2013-04-30 12:13:00,65.2,41.0,30.26,SSW,201,7.0,-999.0,42,-99.99,,,0.00,weatherlink.com 1.10,2013-04-30 16:13:00,
2013-04-30 12:28:00,65.7,41.0,30.26,South,174,6.0,-999.0,40,-99.99,,,0.00,weatherlink.com 1.10,2013-04-30 16:28:00,
2013-04-30 12:43:00,66.7,40.0,30.26,SE,145,9.0,-999.0,38,-99.99,,,0.00,weatherlink.com 1.10,2013-04-30 16:43:00,
2013-04-30 12:58:00,67.8,44.0,30.26,SSE,152,8.0,-999.0,42,-99.99,,,0.00,weatherlink.com 1.10,2013-04-30 16:58:00,
2013-04-30 13:13:00,66.9,43.0,30.25,SSW,209,6.0,-999.0,42,-99.99,,,0.00,weatherlink.com 1.10,2013-04-30 17:13:00,
2013-04-30 13:28:00,66.7,47.0,30.25,South,172,0.0,-999.0,49,-99.99,,,0.00,weatherlink.com 1.10,2013-04-30 17:28:00,
2013-04-30 13:43:00,67.7,47.0,30.25,SSE,151,10.0,-999.0,47,-99.99,,,0.00,weatherlink.com 1.10,2013-04-30 17:43:00,
2013-04-30 13:58:00,67.1,42.0,30.25,SSW,207,4.0,-999.0,40,-99.99,,,0.00,weatherlink.com 1.10,2013-04-30 17:58:00,
2013-04-30 14:13:00,67.9,46.0,30.25,SSW,193,4.0,-999.0,46,-99.99,,,0.00,weatherlink.com 1.10,2013-04-30 18:13:00,
2013-04-30 14:28:00,69.2,45.0,30.24,SW,218,5.0,-999.0,42,-99.99,,,0.00,weatherlink.com 1.10,2013-04-30 18:28:00,
2013-04-30 14:43:00,69.4,46.0,30.24,SSW,210,6.0,-999.0,43,-99.99,,,0.00,weatherlink.com 1.10,2013-04-30 18:43:00,
2013-04-30 14:58:00,68.4,46.0,30.24,SSE,164,0.0,-999.0,44,-99.99,,,0.00,weatherlink.com 1.10,2013-04-30 18:58:00,
2013-04-30 15:13:00,70.1,46.0,30.23,SW,221,5.0,-999.0,42,-99.99,,,0.00,weatherlink.com 1.10,2013-04-30 19:13:00,
2013-04-30 15:28:00,70.2,43.0,30.23,SW,220,4.0,-999.0,37,-99.99,,,0.00,weatherlink.com 1.10,2013-04-30 19:28:00,
2013-04-30 15:43:00,69.9,46.0,30.23,South,186,4.0,-999.0,42,-99.99,,,0.00,weatherlink.com 1.10,2013-04-30 19:43:00,
2013-04-30 15:59:00,70.4,48.0,30.23,SSW,197,7.0,-999.0,45,-99.99,,,0.00,weatherlink.com 1.10,2013-04-30 19:59:00,
2013-04-30 16:14:00,70.8,44.0,30.23,WNW,294,0.0,-999.0,38,-99.99,,,0.00,weatherlink.com 1.10,2013-04-30 20:14:00,
2013-04-30 16:29:00,70.3,43.0,30.23,South,175,0.0,-999.0,38,-99.99,,,0.00,weatherlink.com 1.10,2013-04-30 20:29:00,
2013-04-30 16:44:00,69.8,42.0,30.23,SW,218,0.0,-999.0,36,-99.99,,,0.00,weatherlink.com 1.10,2013-04-30 20:44:00,
2013-04-30 16:59:00,69.7,45.0,30.23,SW,229,0.0,-999.0,41,-99.99,,,0.00,weatherlink.com 1.10,2013-04-30 20:59:00,
2013-04-30 17:14:00,69.6,41.0,30.23,SSW,194,0.0,-999.0,35,-99.99,,,0.00,weatherlink.com 1.10,2013-04-30 21:14:00,
2013-04-30 17:29:00,69.4,44.0,30.23,SSW,197,0.0,-999.0,40,-99.99,,,0.00,weatherlink.com 1.10,2013-04-30 21:29:00,
2013-04-30 17:44:00,69.7,42.0,30.23,South,172,0.0,-999.0,37,-99.99,,,0.00,weatherlink.com 1.10,2013-04-30 21:44:00,
2013-04-30 17:59:00,69.9,42.0,30.23,South,172,0.0,-999.0,36,-99.99,,,0.00,weatherlink.com 1.10,2013-04-30 21:59:00,
2013-04-30 18:14:00,69.7,43.0,30.23,South,172,0.0,-999.0,38,-99.99,,,0.00,weatherlink.com 1.10,2013-04-30 22:14:00,
2013-04-30 18:29:00,69.6,42.0,30.23,South,172,0.0,-999.0,37,-99.99,,,0.00,weatherlink.com 1.10,2013-04-30 22:29:00,
2013-04-30 18:44:00,69.0,44.0,30.23,South,172,0.0,-999.0,40,-99.99,,,0.00,weatherlink.com 1.10,2013-04-30 22:44:00,
2013-04-30 18:59:00,68.6,43.0,30.24,South,172,0.0,-999.0,39,-99.99,,,0.00,weatherlink.com 1.10,2013-04-30 22:59:00,
2013-04-30 19:14:00,67.7,42.0,30.24,South,172,0.0,-999.0,40,-99.99,,,0.00,weatherlink.com 1.10,2013-04-30 23:14:00,
2013-04-30 19:29:00,67.0,42.0,30.24,South,172,0.0,-999.0,40,-99.99,,,0.00,weatherlink.com 1.10,2013-04-30 23:29:00,
2013-04-30 19:44:00,66.1,42.0,30.24,South,172,0.0,-999.0,41,-99.99,,,0.00,weatherlink.com 1.10,2013-04-30 23:44:00,
2013-04-30 19:59:00,65.2,41.0,30.24,South,172,0.0,-999.0,42,-99.99,,,0.00,weatherlink.com 1.10,2013-04-30 23:59:00,
2013-04-30 20:14:00,64.5,41.0,30.25,South,172,2.0,-999.0,43,-99.99,,,0.00,weatherlink.com 1.10,2013-05-01 00:14:00,
2013-04-30 20:29:00,63.2,41.0,30.25,South,172,1.0,-999.0,45,-99.99,,,0.00,weatherlink.com 1.10,2013-05-01 00:29:00,
2013-04-30 20:44:00,62.6,41.0,30.25,South,172,4.0,-999.0,45,-99.99,,,0.00,weatherlink.com 1.10,2013-05-01 00:44:00,
2013-04-30 20:59:00,62.3,39.0,30.26,SSW,200,0.0,-999.0,43,-99.99,,,0.00,weatherlink.com 1.10,2013-05-01 00:59:00,
2013-04-30 21:14:00,62.1,39.0,30.28,SSW,200,0.0,-999.0,42,-99.99,,,0.00,weatherlink.com 1.10,2013-05-01 01:14:00,
2013-04-30 21:29:00,60.2,39.0,30.29,SSW,200,3.0,-999.0,45,-99.99,,,0.00,weatherlink.com 1.10,2013-05-01 01:29:00,
2013-04-30 21:44:00,59.2,38.0,30.29,South,189,2.0,-999.0,45,-99.99,,,0.00,weatherlink.com 1.10,2013-05-01 01:44:00,
2013-04-30 21:59:00,58.3,38.0,30.30,South,189,0.0,-999.0,47,-99.99,,,0.00,weatherlink.com 1.10,2013-05-01 01:59:00,
2013-04-30 22:14:00,57.0,37.0,30.30,South,188,0.0,-999.0,48,-99.99,,,0.00,weatherlink.com 1.10,2013-05-01 02:14:00,
2013-04-30 22:29:00,57.0,35.0,30.30,South,189,0.0,-999.0,44,-99.99,,,0.00,weatherlink.com 1.10,2013-05-01 02:29:00,
2013-04-30 22:44:00,56.8,35.0,30.30,South,189,5.0,-999.0,45,-99.99,,,0.00,weatherlink.com 1.10,2013-05-01 02:44:00,
2013-04-30 22:59:00,56.4,35.0,30.30,South,188,2.0,-999.0,45,-99.99,,,0.00,weatherlink.com 1.10,2013-05-01 02:59:00,
2013-04-30 23:14:00,55.2,35.0,30.31,South,188,4.0,-999.0,47,-99.99,,,0.00,weatherlink.com 1.10,2013-05-01 03:14:00,
2013-04-30 23:29:00,54.7,35.0,30.31,SSW,194,5.0,-999.0,47,-99.99,,,0.00,weatherlink.com 1.10,2013-05-01 03:29:00,
2013-04-30 23:44:00,54.6,33.0,30.32,South,183,2.0,-999.0,45,-99.99,,,0.00,weatherlink.com 1.10,2013-05-01 03:44:00,
2013-04-30 23:59:00,53.6,34.0,30.32,South,183,2.0,-999.0,47,-99.99,,,0.00,weatherlink.com 1.10,2013-05-01 03:59:00,